Time;durP1;ratioP1;P1;durP2;ratioP2;P2;SDS_P1;SDS_P2;PMS_P1;PMS_P2;Temp;Humidity;BMP_temperature;BMP_pressure;BME280_temperature;BME280_humidity;BME280_pressure;Samples;Min_cycle;Max_cycle;Signal;HPM_P1;HPM_P2
2023/07/21 00:00:00;;;;;;;5.25;1.30;;;;;;;14.35;82.74;100896.72;5096205;28;20048;-42
2023/07/21 00:02:27;;;;;;;2.95;1.13;;;;;;;14.31;82.50;100901.34;5092621;28;20056;-42
2023/07/21 00:04:54;;;;;;;3.03;1.20;;;;;;;14.27;82.35;100897.72;5112343;28;20134;-42
2023/07/21 00:07:20;;;;;;;4.97;1.50;;;;;;;14.22;82.32;100895.19;5114966;28;20497;-42
2023/07/21 00:09:47;;;;;;;4.80;1.52;;;;;;;14.20;82.21;100892.78;5101574;28;20059;-42
2023/07/21 00:12:14;;;;;;;7.00;2.55;;;;;;;14.21;82.29;100899.16;5096295;28;20485;-42
2023/07/21 00:14:41;;;;;;;2.72;1.08;;;;;;;14.20;82.36;100894.75;5113617;28;20550;-42
2023/07/21 00:17:08;;;;;;;2.97;1.20;;;;;;;14.16;82.32;100899.47;5108802;28;20478;-42
2023/07/21 00:19:35;;;;;;;2.08;1.20;;;;;;;14.14;82.29;100901.81;5107834;28;20067;-41
2023/07/21 00:22:02;;;;;;;1.45;1.15;;;;;;;14.09;82.24;100904.84;5095269;28;20092;-42
2023/07/21 00:24:29;;;;;;;3.20;1.60;;;;;;;14.00;82.03;100897.50;5108077;28;20055;-42
2023/07/21 00:26:58;;;;;;;2.25;1.10;;;;;;;13.96;82.03;100896.66;5100661;28;20069;-42
2023/07/21 00:29:29;;;;;;;2.17;1.48;;;;;;;14.02;81.85;100900.75;5099883;28;20555;-42
2023/07/21 00:31:56;;;;;;;5.25;1.40;;;;;;;14.03;81.82;100896.78;5094830;28;20052;-42
2023/07/21 00:34:24;;;;;;;3.40;1.33;;;;;;;14.04;81.88;100897.59;5109590;28;20110;-42
2023/07/21 00:36:55;;;;;;;4.85;1.30;;;;;;;13.98;81.77;100891.50;5111489;28;20046;-41
2023/07/21 00:39:23;;;;;;;2.35;1.20;;;;;;;13.99;81.87;100897.88;5105005;28;20048;-42
2023/07/21 00:41:49;;;;;;;2.70;1.00;;;;;;;13.98;81.71;100897.09;5114645;28;20059;-43
2023/07/21 00:44:16;;;;;;;1.90;1.20;;;;;;;14.00;81.63;100907.88;5114977;28;20139;-42
2023/07/21 00:46:43;;;;;;;4.18;1.30;;;;;;;13.96;81.47;100901.41;5114025;28;20043;-41
2023/07/21 00:49:10;;;;;;;5.05;1.25;;;;;;;13.92;81.41;100900.53;5096474;28;20043;-42
2023/07/21 00:51:37;;;;;;;3.95;1.80;;;;;;;13.90;81.51;100902.84;5114657;28;20039;-42
2023/07/21 00:54:04;;;;;;;3.20;1.60;;;;;;;13.90;81.37;100895.31;5110543;28;20036;-43
2023/07/21 00:56:32;;;;;;;4.18;1.38;;;;;;;13.89;81.50;100890.94;5103947;28;20075;-42
2023/07/21 00:58:59;;;;;;;4.40;1.75;;;;;;;13.84;81.46;100894.00;5114203;28;20051;-42
2023/07/21 01:01:26;;;;;;;2.78;1.65;;;;;;;13.80;81.50;100887.53;5114520;28;20062;-42
2023/07/21 01:03:53;;;;;;;3.00;1.30;;;;;;;13.76;81.53;100889.44;5108618;28;20074;-42
2023/07/21 01:06:27;;;;;;;3.55;1.52;;;;;;;13.76;81.66;100881.09;5095278;28;20138;-42
2023/07/21 01:08:56;;;;;;;4.00;1.38;;;;;;;13.75;81.34;100878.66;5107370;28;20040;-42
2023/07/21 01:11:25;;;;;;;2.28;1.25;;;;;;;13.73;81.38;100892.94;5111600;28;20039;-43
2023/07/21 01:13:54;;;;;;;3.50;1.10;;;;;;;13.74;81.24;100885.41;5102394;28;20052;-42
2023/07/21 01:16:23;;;;;;;3.63;1.63;;;;;;;13.76;81.41;100883.06;5105801;28;20131;-44
2023/07/21 01:18:53;;;;;;;5.57;1.73;;;;;;;13.78;81.17;100889.88;5102200;28;20120;-42
2023/07/21 01:21:41;;;;;;;2.95;1.90;;;;;;;13.76;81.22;100897.78;5112224;28;20039;-42
2023/07/21 01:24:15;;;;;;;4.10;2.35;;;;;;;13.72;81.21;100887.72;5104984;28;20044;-42
2023/07/21 01:26:44;;;;;;;3.25;1.88;;;;;;;13.70;81.46;100888.09;5112971;28;20036;-42
2023/07/21 01:29:11;;;;;;;6.03;1.50;;;;;;;13.67;81.57;100886.03;5112315;28;20043;-42
2023/07/21 01:31:40;;;;;;;2.33;1.23;;;;;;;13.62;81.43;100893.84;5094472;28;20047;-44
2023/07/21 01:34:09;;;;;;;1.55;1.13;;;;;;;13.61;81.80;100890.25;5113716;28;20044;-43
2023/07/21 01:36:38;;;;;;;3.97;1.73;;;;;;;13.58;81.83;100885.41;5108560;28;20062;-42
2023/07/21 01:39:06;;;;;;;1.95;1.52;;;;;;;13.55;81.95;100886.16;5113564;28;20445;-42
2023/07/21 01:41:34;;;;;;;7.50;2.13;;;;;;;13.49;81.88;100889.56;5113715;28;20050;-42
2023/07/21 01:44:01;;;;;;;17.85;2.85;;;;;;;13.45;82.05;100886.69;5113114;28;20039;-42
2023/07/21 01:46:28;;;;;;;6.28;1.73;;;;;;;13.42;82.25;100884.66;5112791;28;20385;-42
2023/07/21 01:48:55;;;;;;;6.45;1.38;;;;;;;13.42;82.15;100888.22;5110307;28;20047;-42
2023/07/21 01:51:23;;;;;;;2.90;1.30;;;;;;;13.41;82.35;100883.03;5110040;28;20526;-42
2023/07/21 01:53:56;;;;;;;3.42;1.65;;;;;;;13.37;82.21;100882.94;5113373;28;20047;-42
2023/07/21 01:56:35;;;;;;;6.53;1.20;;;;;;;13.37;82.34;100882.13;5112737;28;20088;-47
2023/07/21 01:59:05;;;;;;;5.43;1.70;;;;;;;13.30;82.47;100873.63;5112636;28;20413;-42
2023/07/21 02:01:33;;;;;;;5.13;1.73;;;;;;;13.29;82.56;100872.03;5112963;28;20577;-42
2023/07/21 02:04:00;;;;;;;5.68;1.60;;;;;;;13.26;82.60;100869.97;5093847;28;20067;-43
2023/07/21 02:06:27;;;;;;;1.63;1.33;;;;;;;13.19;82.69;100869.78;5104927;28;20059;-51
2023/07/21 02:08:55;;;;;;;2.75;1.33;;;;;;;13.16;82.89;100867.72;5110187;28;20032;-42
2023/07/21 02:11:22;;;;;;;2.22;1.42;;;;;;;13.11;83.33;100859.66;5100240;28;20060;-42
2023/07/21 02:13:50;;;;;;;2.97;1.23;;;;;;;13.08;83.27;100866.72;5090145;28;20040;-42
2023/07/21 02:16:17;;;;;;;3.80;2.35;;;;;;;13.03;83.51;100868.94;5092681;28;20044;-41
2023/07/21 02:18:44;;;;;;;4.18;1.40;;;;;;;13.02;83.69;100859.81;5110432;28;20044;-42
2023/07/21 02:21:10;;;;;;;3.83;1.83;;;;;;;13.02;83.71;100859.81;5112871;28;20139;-43
2023/07/21 02:23:37;;;;;;;6.18;2.17;;;;;;;12.99;83.92;100854.16;5112589;28;20065;-42
2023/07/21 02:26:04;;;;;;;4.80;1.52;;;;;;;12.94;84.16;100860.00;5112405;28;20050;-42
2023/07/21 02:28:31;;;;;;;3.17;1.52;;;;;;;12.93;84.23;100847.25;5111368;28;20511;-43
2023/07/21 02:31:03;;;;;;;4.88;1.80;;;;;;;12.93;84.22;100850.03;5110992;28;20424;-42
2023/07/21 02:33:31;;;;;;;7.82;1.60;;;;;;;12.95;84.32;100853.25;5113109;28;20043;-42
2023/07/21 02:35:58;;;;;;;7.53;1.63;;;;;;;12.96;84.28;100844.56;5109156;28;20050;-45
2023/07/21 02:38:25;;;;;;;2.63;1.15;;;;;;;12.96;84.42;100846.53;5109166;28;20051;-43
2023/07/21 02:40:53;;;;;;;11.73;2.28;;;;;;;12.97;84.53;100839.81;5090001;28;20044;-42
2023/07/21 02:43:22;;;;;;;7.80;1.60;;;;;;;12.96;84.69;100844.56;5099769;28;20044;-42
2023/07/21 02:45:53;;;;;;;5.60;1.30;;;;;;;12.97;84.77;100837.84;5109447;28;20581;-42
2023/07/21 02:48:21;;;;;;;1.85;1.75;;;;;;;13.00;84.47;100839.91;5109586;28;20050;-41
2023/07/21 02:50:50;;;;;;;6.63;2.17;;;;;;;13.00;84.72;100841.88;5094877;28;20039;-43
2023/07/21 02:53:19;;;;;;;3.20;2.40;;;;;;;13.00;84.70;100837.13;5110004;28;20044;-42
2023/07/21 02:55:47;;;;;;;6.93;1.75;;;;;;;12.99;84.71;100840.25;5095029;28;20066;-42
2023/07/21 02:58:15;;;;;;;4.10;2.10;;;;;;;12.94;84.85;100835.78;5091820;28;20477;-42
2023/07/21 03:00:42;;;;;;;7.30;1.80;;;;;;;12.89;84.82;100835.25;5137452;22;20015;-43
2023/07/21 03:03:14;;;;;;;2.80;1.45;;;;;;;12.86;85.04;100828.44;5067894;28;20075;-42
2023/07/21 03:05:42;;;;;;;3.78;1.52;;;;;;;12.85;85.29;100824.03;5071017;28;20040;-42
2023/07/21 03:08:14;;;;;;;5.55;1.90;;;;;;;12.87;85.26;100826.47;5071190;28;20045;-42
2023/07/21 03:10:41;;;;;;;7.53;4.70;;;;;;;12.87;85.21;100832.81;5064352;28;20135;-42
2023/07/21 03:13:07;;;;;;;4.57;1.90;;;;;;;12.85;85.25;100829.59;5070000;28;20050;-42
2023/07/21 03:15:34;;;;;;;4.18;2.40;;;;;;;12.83;85.50;100820.81;5071547;28;20049;-42
2023/07/21 03:18:01;;;;;;;4.50;1.60;;;;;;;12.81;85.51;100817.59;5071337;28;20048;-42
2023/07/21 03:20:28;;;;;;;3.60;2.00;;;;;;;12.77;85.62;100828.59;5071043;28;20526;-42
2023/07/21 03:22:55;;;;;;;2.97;1.40;;;;;;;12.79;85.66;100822.69;5071044;28;20405;-42
2023/07/21 03:25:21;;;;;;;6.15;2.05;;;;;;;12.76;85.92;100823.44;5071438;28;20033;-42
2023/07/21 03:27:48;;;;;;;4.68;1.60;;;;;;;12.74;86.14;100815.44;5064613;28;20136;-42
2023/07/21 03:30:15;;;;;;;3.83;2.10;;;;;;;12.73;86.21;100821.34;5071086;28;20068;-42
2023/07/21 03:32:45;;;;;;;3.45;1.70;;;;;;;12.73;86.21;100810.25;5071121;28;20072;-41
2023/07/21 03:35:12;;;;;;;2.35;1.55;;;;;;;12.73;86.33;100819.38;5071037;28;20040;-43
2023/07/21 03:37:39;;;;;;;3.08;1.80;;;;;;;12.68;86.34;100813.28;5071005;28;20127;-42
2023/07/21 03:40:07;;;;;;;2.88;1.75;;;;;;;12.69;86.48;100809.34;5066030;28;20143;-42
2023/07/21 03:42:35;;;;;;;6.05;2.10;;;;;;;12.68;86.68;100814.06;5049162;28;20151;-42
2023/07/21 03:45:05;;;;;;;3.47;1.73;;;;;;;12.65;86.49;100809.25;5067714;28;20044;-42
2023/07/21 03:47:32;;;;;;;3.97;2.10;;;;;;;12.62;86.74;100809.16;5050857;28;20044;-42
2023/07/21 03:49:59;;;;;;;4.10;2.30;;;;;;;12.61;86.81;100816.69;5067155;28;20051;-42
2023/07/21 03:52:29;;;;;;;3.33;1.50;;;;;;;12.60;86.90;100805.94;5067349;28;20148;-42
2023/07/21 03:54:56;;;;;;;5.43;2.33;;;;;;;12.59;86.79;100810.69;5068464;28;20048;-42
2023/07/21 03:57:22;;;;;;;3.92;1.30;;;;;;;12.61;86.71;100819.47;5050259;28;20524;-42
2023/07/21 03:59:50;;;;;;;3.70;3.25;;;;;;;12.57;86.87;100804.69;5069963;28;20102;-44
2023/07/21 04:02:17;;;;;;;2.92;1.60;;;;;;;12.54;87.17;100810.13;5051235;28;20126;-42
2023/07/21 04:04:45;;;;;;;5.45;1.50;;;;;;;12.46;87.09;100814.69;5069545;28;20048;-42
2023/07/21 04:07:12;;;;;;;5.53;1.58;;;;;;;12.46;87.34;100811.09;5068005;28;20056;-41
2023/07/21 04:09:39;;;;;;;2.15;1.25;;;;;;;12.42;87.23;100804.63;5067724;28;20490;-44
2023/07/21 04:12:07;;;;;;;8.63;1.95;;;;;;;12.39;87.39;100800.59;5068833;28;20425;-42
2023/07/21 04:14:34;;;;;;;5.82;1.85;;;;;;;12.39;87.31;100799.81;5064307;28;20056;-43
2023/07/21 04:17:01;;;;;;;2.92;2.13;;;;;;;12.43;87.35;100804.31;5066042;28;20095;-43
2023/07/21 04:19:28;;;;;;;3.65;1.58;;;;;;;12.41;87.55;100798.31;5065178;28;20098;-42
2023/07/21 04:21:55;;;;;;;10.02;2.28;;;;;;;12.37;87.60;100794.59;5075385;28;20044;-42
2023/07/21 04:24:21;;;;;;;6.55;1.58;;;;;;;12.38;87.76;100803.75;5059242;28;20048;-43
2023/07/21 04:26:48;;;;;;;4.55;2.00;;;;;;;12.40;87.72;100796.69;5075593;28;20053;-43
2023/07/21 04:29:15;;;;;;;4.07;1.55;;;;;;;12.39;87.89;100797.03;5068395;28;20044;-46
2023/07/21 04:31:55;;;;;;;4.10;1.52;;;;;;;12.40;88.08;100791.13;5064648;28;20040;-41
2023/07/21 04:34:23;;;;;;;3.22;1.63;;;;;;;12.43;88.08;100795.97;5065945;28;20060;-43
2023/07/21 04:36:50;;;;;;;4.05;1.50;;;;;;;12.43;88.02;100789.59;5066505;28;20054;-42
2023/07/21 04:39:17;;;;;;;4.68;1.40;;;;;;;12.45;87.99;100798.38;5067367;28;20744;-44
2023/07/21 04:41:44;;;;;;;3.22;1.40;;;;;;;12.44;88.09;100792.03;5068518;28;20048;-43
2023/07/21 04:44:11;;;;;;;6.63;2.38;;;;;;;12.44;88.14;100796.78;5067131;28;20490;-42
2023/07/21 04:46:38;;;;;;;6.10;2.42;;;;;;;12.44;87.86;100792.03;5066755;28;20138;-44
2023/07/21 04:49:07;;;;;;;5.03;1.17;;;;;;;12.44;88.17;100786.50;5067145;28;20069;-44
2023/07/21 04:51:34;;;;;;;4.75;1.92;;;;;;;12.46;88.33;100795.25;5065829;28;20037;-42
2023/07/21 04:54:03;;;;;;;6.07;1.83;;;;;;;12.47;88.17;100794.06;5071093;28;20110;-42
2023/07/21 04:56:39;;;;;;;3.97;2.58;;;;;;;12.48;88.33;100792.94;5069926;28;20045;-42
2023/07/21 04:59:08;;;;;;;2.65;1.48;;;;;;;12.52;88.49;100795.81;5068317;28;20133;-42
2023/07/21 05:01:35;;;;;;;3.83;1.40;;;;;;;12.57;88.32;100796.34;5069423;28;20939;-42
2023/07/21 05:04:02;;;;;;;6.55;2.03;;;;;;;12.60;88.34;100797.59;5053047;28;20086;-42
2023/07/21 05:06:29;;;;;;;4.25;1.70;;;;;;;12.61;88.57;100794.47;5070997;28;20131;-42
2023/07/21 05:08:57;;;;;;;3.28;1.50;;;;;;;12.66;88.48;100793.38;5069418;28;20048;-44
2023/07/21 05:11:23;;;;;;;3.08;1.70;;;;;;;12.66;88.42;100796.16;5071372;28;20037;-42
2023/07/21 05:13:52;;;;;;;2.35;1.50;;;;;;;12.61;88.70;100791.69;5076183;28;20466;-42
2023/07/21 05:16:23;;;;;;;7.80;3.00;;;;;;;12.62;88.89;100800.81;5068844;28;20537;-42
2023/07/21 05:18:50;;;;;;;10.45;8.90;;;;;;;12.62;88.86;100796.09;5071140;28;20131;-42
2023/07/21 05:21:17;;;;;;;6.82;5.93;;;;;;;12.64;88.83;100796.53;5070445;28;20041;-42
2023/07/21 05:23:44;;;;;;;6.10;2.40;;;;;;;12.67;88.89;100795.81;5070953;28;20045;-42
2023/07/21 05:26:11;;;;;;;3.28;1.92;;;;;;;12.69;89.03;100787.91;5069405;28;20094;-42
2023/07/21 05:28:38;;;;;;;3.28;1.80;;;;;;;12.70;89.06;100797.88;5051747;28;20090;-42
2023/07/21 05:31:07;;;;;;;7.40;1.60;;;;;;;12.70;89.05;100800.66;5069576;28;20075;-43
2023/07/21 05:33:34;;;;;;;4.72;1.95;;;;;;;12.70;89.06;100809.00;5070485;28;20102;-42
2023/07/21 05:36:08;;;;;;;1.63;1.25;;;;;;;12.72;89.10;100803.06;5071420;28;20044;-42
2023/07/21 05:38:35;;;;;;;3.20;1.50;;;;;;;12.69;89.27;100801.81;5074962;28;20131;-42
2023/07/21 05:41:02;;;;;;;5.13;1.63;;;;;;;12.72;89.16;100797.50;5069088;28;20044;-43
2023/07/21 05:43:28;;;;;;;2.70;1.30;;;;;;;12.74;89.38;100797.94;5066354;28;20094;-42
2023/07/21 05:45:55;;;;;;;3.97;1.48;;;;;;;12.72;89.32;100795.53;5068868;28;20036;-42
2023/07/21 05:48:24;;;;;;;5.78;2.30;;;;;;;12.74;89.26;100796.00;5051721;28;20083;-44
2023/07/21 05:50:51;;;;;;;5.63;1.52;;;;;;;12.78;89.35;100805.22;5067480;28;20489;-42
2023/07/21 05:53:19;;;;;;;2.58;1.25;;;;;;;12.77;89.47;100794.47;5070308;28;20043;-43
2023/07/21 05:55:46;;;;;;;3.28;1.70;;;;;;;12.78;89.48;100788.56;5070926;28;20048;-41
2023/07/21 05:58:13;;;;;;;4.72;1.55;;;;;;;12.78;89.41;100790.53;5069478;28;20506;-45
2023/07/21 06:00:42;;;;;;;7.22;1.30;;;;;;;12.79;89.41;100787.38;5064502;28;20557;-44
2023/07/21 06:03:09;;;;;;;5.18;1.95;;;;;;;12.80;89.72;100793.75;5061306;28;20040;-42
2023/07/21 06:05:36;;;;;;;5.43;1.92;;;;;;;12.81;89.98;100790.59;5036985;28;20071;-43
2023/07/21 06:08:09;;;;;;;2.95;1.30;;;;;;;12.83;89.63;100796.63;5063102;28;20490;-42
2023/07/21 06:10:38;;;;;;;4.35;1.77;;;;;;;12.87;89.81;100793.13;5060913;28;20059;-42
2023/07/21 06:13:06;;;;;;;4.03;1.73;;;;;;;12.92;89.89;100806.75;5054779;28;20037;-42
2023/07/21 06:15:34;;;;;;;4.07;1.58;;;;;;;12.94;89.86;100794.09;5058847;28;20482;-42
2023/07/21 06:18:03;;;;;;;2.95;1.30;;;;;;;12.97;89.85;100798.13;5048065;28;20083;-42
2023/07/21 06:20:32;;;;;;;5.15;1.63;;;;;;;12.99;89.93;100802.16;5052377;28;20058;-42
2023/07/21 06:23:00;;;;;;;3.88;1.75;;;;;;;12.99;89.99;100795.81;5052178;28;20045;-43
2023/07/21 06:25:27;;;;;;;2.70;1.63;;;;;;;12.99;90.04;100795.81;5034132;28;20055;-43
2023/07/21 06:27:54;;;;;;;3.03;1.75;;;;;;;13.03;89.96;100799.47;5045950;28;20037;-42
2023/07/21 06:30:21;;;;;;;3.30;1.67;;;;;;;13.04;89.99;100803.84;5045034;28;20128;-43
2023/07/21 06:32:48;;;;;;;4.25;2.00;;;;;;;13.02;90.04;100797.88;5051698;28;20490;-42
2023/07/21 06:35:14;;;;;;;5.95;1.90;;;;;;;13.06;90.17;100793.19;5046117;28;20056;-47
2023/07/21 06:37:41;;;;;;;4.00;1.85;;;;;;;13.06;89.94;100795.97;5047579;28;20091;-42
2023/07/21 06:40:09;;;;;;;2.90;1.92;;;;;;;13.06;90.23;100793.19;5040006;28;20048;-43
2023/07/21 06:42:36;;;;;;;3.38;1.63;;;;;;;13.09;89.96;100789.72;5051864;28;20562;-43
2023/07/21 06:45:03;;;;;;;2.63;1.50;;;;;;;13.08;90.25;100793.69;5051610;28;20045;-42
2023/07/21 06:47:29;;;;;;;5.35;1.80;;;;;;;13.11;90.42;100796.53;5051887;28;20535;-45
2023/07/21 06:50:00;;;;;;;6.55;1.95;;;;;;;13.16;90.37;100799.03;5050828;28;20049;-42
2023/07/21 06:52:27;;;;;;;5.20;2.47;;;;;;;13.21;90.43;100795.19;5051532;28;20501;-44
2023/07/21 06:54:55;;;;;;;4.82;1.83;;;;;;;13.25;90.24;100793.28;5034190;28;20052;-42
2023/07/21 06:57:22;;;;;;;5.78;1.70;;;;;;;13.28;90.16;100792.56;5051379;28;20106;-42
2023/07/21 06:59:49;;;;;;;4.70;1.55;;;;;;;13.27;90.08;100796.50;5051656;28;20094;-42
2023/07/21 07:02:15;;;;;;;4.18;2.30;;;;;;;13.29;90.41;100788.63;5047330;28;20143;-44
2023/07/21 07:04:42;;;;;;;6.45;1.67;;;;;;;13.32;90.18;100799.00;5071528;28;20055;-42
2023/07/21 07:07:09;;;;;;;3.80;1.80;;;;;;;13.34;90.12;100796.69;5069507;28;20051;-42
2023/07/21 07:09:36;;;;;;;5.10;2.10;;;;;;;13.37;90.46;100798.72;5071130;28;20053;-42
2023/07/21 07:12:05;;;;;;;3.22;2.20;;;;;;;13.42;90.52;100798.44;5066938;28;20033;-43
2023/07/21 07:14:32;;;;;;;3.47;2.15;;;;;;;13.50;90.56;100805.78;5073353;28;20052;-41
2023/07/21 07:16:59;;;;;;;2.83;1.70;;;;;;;13.55;90.38;100802.72;5062805;28;20044;-43
2023/07/21 07:19:26;;;;;;;3.42;1.63;;;;;;;13.58;90.13;100807.53;5068151;28;20048;-42
2023/07/21 07:21:55;;;;;;;5.03;1.80;;;;;;;13.59;89.99;100798.03;5063746;28;20051;-42
2023/07/21 07:24:21;;;;;;;3.05;1.70;;;;;;;13.64;90.07;100800.53;5062616;28;20157;-45
2023/07/21 07:26:48;;;;;;;5.72;1.58;;;;;;;13.73;89.88;100792.78;5065862;28;20047;-42
2023/07/21 07:29:20;;;;;;;6.95;2.17;;;;;;;13.78;89.65;100798.06;5069329;28;20055;-44
2023/07/21 07:31:47;;;;;;;1.98;1.52;;;;;;;13.80;89.82;100798.47;5066753;28;20174;-43
2023/07/21 07:34:15;;;;;;;2.53;1.60;;;;;;;13.94;89.78;100806.31;5068828;28;20056;-47
2023/07/21 07:36:42;;;;;;;5.95;1.70;;;;;;;14.03;89.59;100801.34;5067436;28;20041;-46
2023/07/21 07:39:08;;;;;;;5.25;1.42;;;;;;;14.10;89.41;100793.13;5067039;28;20536;-43
2023/07/21 07:41:35;;;;;;;5.22;2.55;;;;;;;14.18;89.15;100800.47;5044642;28;20116;-43
2023/07/21 07:44:02;;;;;;;2.00;1.20;;;;;;;14.24;89.05;100793.44;5066957;28;20556;-42
2023/07/21 07:46:28;;;;;;;5.00;1.70;;;;;;;14.32;88.85;100802.75;5068115;28;20140;-43
2023/07/21 07:48:55;;;;;;;1.63;1.02;;;;;;;14.40;88.99;100798.94;5070213;28;20045;-44
2023/07/21 07:51:22;;;;;;;3.35;1.25;;;;;;;14.47;88.66;100793.47;5071024;28;20032;-43
2023/07/21 07:53:52;;;;;;;3.00;1.33;;;;;;;14.61;89.08;100793.75;5057245;28;20044;-43
2023/07/21 07:56:21;;;;;;;3.47;1.50;;;;;;;14.89;88.93;100798.97;5068884;28;20494;-45
2023/07/21 07:58:47;;;;;;;1.60;1.15;;;;;;;15.05;88.63;100792.09;5066660;28;20379;-41
2023/07/21 08:01:14;;;;;;;3.85;1.30;;;;;;;15.19;89.13;100786.75;5068383;28;20041;-42
2023/07/21 08:03:43;;;;;;;3.83;1.20;;;;;;;15.48;89.61;100788.00;5070982;28;20052;-42
2023/07/21 08:06:12;;;;;;;3.80;1.10;;;;;;;15.93;90.25;100787.00;5066856;28;20044;-43
2023/07/21 08:08:40;;;;;;;4.25;1.10;;;;;;;16.49;90.71;100792.41;5066060;28;20109;-42
2023/07/21 08:11:06;;;;;;;1.90;1.05;;;;;;;17.21;90.28;100786.28;5068480;28;20093;-44
2023/07/21 08:13:34;;;;;;;5.15;1.27;;;;;;;18.04;89.62;100798.34;5073021;28;20094;-42
2023/07/21 08:16:06;;;;;;;1.15;0.70;;;;;;;18.48;87.06;100800.94;5070726;28;20045;-42
2023/07/21 08:18:33;;;;;;;2.75;1.23;;;;;;;18.73;84.76;100801.75;5071131;28;20410;-45
2023/07/21 08:21:16;;;;;;;1.85;0.70;;;;;;;18.75;84.16;100800.16;5068147;28;20048;-42
2023/07/21 08:23:42;;;;;;;3.03;0.73;;;;;;;18.81;82.71;100798.56;5040903;28;20090;-42
2023/07/21 08:26:09;;;;;;;3.38;0.70;;;;;;;19.44;80.38;100802.56;5070336;28;20044;-43
2023/07/21 08:28:36;;;;;;;1.65;0.45;;;;;;;19.79;78.42;100799.69;5071382;28;20052;-43
2023/07/21 08:31:02;;;;;;;3.83;1.38;;;;;;;20.20;76.86;100804.72;5071636;28;20436;-43
2023/07/21 08:33:29;;;;;;;2.63;1.23;;;;;;;20.79;74.60;100806.41;5072148;28;20474;-43
2023/07/21 08:35:56;;;;;;;1.42;0.63;;;;;;;20.64;72.53;100805.72;5074190;28;20127;-44
2023/07/21 08:38:24;;;;;;;0.90;0.68;;;;;;;20.50;71.10;100802.16;5073018;28;20051;-43
2023/07/21 08:41:02;;;;;;;2.65;0.68;;;;;;;20.67;71.42;100808.91;5072046;28;20048;-44
2023/07/21 08:43:31;;;;;;;3.88;0.98;;;;;;;20.60;68.24;100810.53;5066881;28;20532;-43
2023/07/21 08:46:05;;;;;;;1.80;0.77;;;;;;;20.17;68.18;100808.34;5071294;28;20058;-43
2023/07/21 08:48:32;;;;;;;0.95;0.70;;;;;;;19.77;67.59;100806.91;5069983;28;20080;-43
2023/07/21 08:50:59;;;;;;;3.65;0.75;;;;;;;19.32;67.23;100805.78;5070501;28;20044;-42
2023/07/21 08:53:26;;;;;;;3.15;0.93;;;;;;;18.90;67.55;100812.22;5070502;28;20055;-43
2023/07/21 08:55:56;;;;;;;2.22;0.85;;;;;;;18.53;68.12;100809.72;5045003;28;20052;-47
2023/07/21 08:58:24;;;;;;;2.03;0.68;;;;;;;18.44;68.09;100803.69;5072902;28;20094;-43
2023/07/21 09:00:54;;;;;;;2.78;0.95;;;;;;;18.36;68.22;100807.66;5065652;28;20044;-43
2023/07/21 09:03:25;;;;;;;2.58;1.67;;;;;;;18.29;68.37;100804.84;5072230;28;20493;-43
2023/07/21 09:05:55;;;;;;;1.43;0.80;;;;;;;18.47;67.91;100810.50;5072420;28;20049;-44
2023/07/21 09:08:28;;;;;;;1.25;0.73;;;;;;;18.57;68.03;100799.34;5067307;28;20049;-44
2023/07/21 09:11:02;;;;;;;3.78;1.48;;;;;;;18.81;67.28;100806.97;5068743;28;20045;-42
2023/07/21 09:13:30;;;;;;;0.65;0.60;;;;;;;18.72;66.93;100806.56;5071544;28;20076;-43
2023/07/21 09:16:05;;;;;;;2.17;0.68;;;;;;;18.54;67.21;100810.53;5072416;28;20135;-43
2023/07/21 09:18:42;;;;;;;0.88;0.70;;;;;;;18.95;67.36;100791.34;5082394;28;20048;-43
2023/07/21 09:21:23;;;;;;;1.80;0.85;;;;;;;19.11;66.19;100794.56;5069967;28;20554;-44
2023/07/21 09:23:51;;;;;;;2.00;0.73;;;;;;;19.16;66.26;100796.97;5059667;28;20044;-43
2023/07/21 09:26:22;;;;;;;2.95;0.93;;;;;;;19.32;65.95;100800.16;5072320;28;20056;-43
2023/07/21 09:28:51;;;;;;;1.75;0.77;;;;;;;19.52;64.96;100797.72;5051751;28;20083;-43
2023/07/21 09:31:31;;;;;;;3.80;0.70;;;;;;;19.81;65.03;100804.88;5071166;28;20043;-42
2023/07/21 09:34:11;;;;;;;0.80;0.50;;;;;;;20.44;63.76;100803.81;5072177;28;20053;-45
2023/07/21 09:36:45;;;;;;;1.35;0.57;;;;;;;20.89;62.91;100802.69;5066639;28;20052;-43
2023/07/21 09:39:14;;;;;;;1.08;0.52;;;;;;;21.46;61.59;100796.59;5069384;28;20113;-44
2023/07/21 09:41:42;;;;;;;0.90;0.43;;;;;;;22.13;60.57;100801.50;5071466;28;20086;-43
2023/07/21 09:44:09;;;;;;;1.95;0.47;;;;;;;22.51;58.88;100793.69;5035769;28;20045;-45
2023/07/21 09:46:38;;;;;;;1.08;0.40;;;;;;;22.55;58.12;100794.47;5072947;28;20059;-44
2023/07/21 09:49:04;;;;;;;1.65;0.40;;;;;;;22.75;57.50;100801.84;5072292;28;20051;-47
2023/07/21 09:51:33;;;;;;;1.83;0.60;;;;;;;22.62;56.83;100808.47;5072957;28;20040;-43
2023/07/21 09:54:04;;;;;;;1.00;0.38;;;;;;;22.11;56.98;100787.81;5070578;28;20036;-43
2023/07/21 09:56:36;;;;;;;2.67;0.45;;;;;;;21.47;57.64;100787.72;5070956;28;20040;-46
2023/07/21 09:59:06;;;;;;;0.90;0.40;;;;;;;21.18;57.90;100789.25;5068495;28;20124;-43
2023/07/21 10:01:33;;;;;;;1.67;0.60;;;;;;;20.76;57.94;100792.38;5072620;28;20083;-43
2023/07/21 10:04:02;;;;;;;2.17;0.40;;;;;;;20.32;58.81;100793.03;5070971;28;20091;-43
2023/07/21 10:06:32;;;;;;;3.33;1.30;;;;;;;20.01;59.84;100786.34;5071364;28;20048;-43
2023/07/21 10:09:03;;;;;;;1.65;1.00;;;;;;;20.10;60.32;100783.06;5064183;28;20060;-43
2023/07/21 10:11:30;;;;;;;1.10;0.57;;;;;;;20.69;59.37;100793.22;5071029;28;20040;-43
2023/07/21 10:13:58;;;;;;;2.35;0.63;;;;;;;21.37;58.09;100785.81;5072086;28;20735;-44
2023/07/21 10:16:29;;;;;;;0.68;0.68;;;;;;;22.17;56.75;100780.47;5074403;28;20055;-44
2023/07/21 10:19:11;;;;;;;1.30;0.85;;;;;;;23.05;55.42;100795.31;5071317;28;20051;-44
2023/07/21 10:21:51;;;;;;;2.55;0.50;;;;;;;23.34;54.35;100798.44;5072336;28;20052;-44
2023/07/21 10:24:26;;;;;;;3.00;1.75;;;;;;;22.73;54.54;100795.03;5069849;28;20040;-43
2023/07/21 10:26:56;;;;;;;1.55;0.88;;;;;;;21.98;55.27;100795.22;5068536;28;20052;-43
2023/07/21 10:29:22;;;;;;;1.38;0.90;;;;;;;21.21;56.06;100797.63;5068076;28;20082;-43
2023/07/21 10:31:58;;;;;;;2.40;0.73;;;;;;;20.44;56.79;100792.56;5071166;28;20122;-43
2023/07/21 10:34:31;;;;;;;1.42;0.57;;;;;;;19.90;57.57;100799.63;5069193;28;20048;-44
2023/07/21 10:37:02;;;;;;;3.42;0.70;;;;;;;19.59;58.16;100784.47;5070651;28;20091;-43
2023/07/21 10:39:31;;;;;;;2.38;0.70;;;;;;;19.52;58.60;100787.31;5050159;28;20053;-45
2023/07/21 10:42:00;;;;;;;2.10;0.80;;;;;;;19.67;58.85;100788.09;5068488;28;20131;-48
2023/07/21 10:44:35;;;;;;;3.13;1.00;;;;;;;19.77;58.94;100782.44;5057590;28;20596;-45
2023/07/21 10:47:03;;;;;;;1.60;0.70;;;;;;;19.83;58.91;100780.78;5069204;28;20045;-44
2023/07/21 10:49:30;;;;;;;2.63;0.80;;;;;;;19.63;58.95;100768.41;5066964;28;20044;-42
2023/07/21 10:51:57;;;;;;;1.75;0.75;;;;;;;19.54;58.89;100782.06;5070544;28;20044;-43
2023/07/21 10:54:24;;;;;;;1.13;0.65;;;;;;;19.39;58.96;100783.31;5069746;28;20040;-44
2023/07/21 10:56:51;;;;;;;1.08;0.70;;;;;;;19.33;59.06;100784.91;5069854;28;20044;-44
2023/07/21 10:59:19;;;;;;;2.05;0.80;;;;;;;19.48;59.05;100786.53;5069577;28;20048;-43
2023/07/21 11:01:49;;;;;;;1.27;0.52;;;;;;;19.87;58.52;100781.59;5068642;28;20152;-43
2023/07/21 11:04:18;;;;;;;1.08;0.60;;;;;;;20.16;57.57;100781.44;5062877;28;20036;-44
2023/07/21 11:06:50;;;;;;;2.15;0.70;;;;;;;20.44;57.91;100770.06;5055149;28;20041;-46
2023/07/21 11:09:19;;;;;;;3.28;1.23;;;;;;;20.77;57.58;100761.00;5056828;28;20139;-43
2023/07/21 11:11:49;;;;;;;1.88;0.70;;;;;;;20.99;57.54;100784.94;5054095;28;20064;-43
2023/07/21 11:14:19;;;;;;;1.52;0.60;;;;;;;21.02;56.68;100767.19;5048177;28;20045;-43
2023/07/21 11:16:49;;;;;;;1.73;1.00;;;;;;;20.92;56.40;100768.09;5036087;28;20797;-43
2023/07/21 11:19:16;;;;;;;0.77;0.40;;;;;;;20.87;55.67;100776.19;5063620;28;20036;-44
2023/07/21 11:21:43;;;;;;;1.25;0.50;;;;;;;20.87;54.97;100765.72;5052874;28;20048;-43
2023/07/21 11:24:25;;;;;;;1.35;0.65;;;;;;;20.91;55.32;100766.50;5050110;28;20057;-43
2023/07/21 11:26:55;;;;;;;0.47;0.35;;;;;;;21.03;54.66;100768.00;5052595;28;20148;-43
2023/07/21 11:29:26;;;;;;;0.73;0.60;;;;;;;21.00;54.37;100768.84;5062828;28;20486;-43